• Join FlightAware (Why Join?)
  • Login
  • US Flag 
Gobble Gobble! 
08:48AM EST


 

Airport Tracker/Info


-or-


 

Live Flight TrackerFlight Track Log ✈ N449ND ✈ 06-Jun-2014 ✈ KFPR - KFPR

Flight Track Log - Related Links

Times and Time Zones

All times are in EDT time to prevent confusion due to time zone crossing. See the N449ND flight status page for this flight to view local times or setup timezone preferences in your user account.

Time Position Orientation Groundspeed Altitude Reporting Facility
EDT Latitude Longitude Course Direction KTS MPH feet Rate Location/Type
09:59PM 27.4339 -80.3781 152° Southeast 72 83 2,100  Level Miami Center
10:00PM 27.4222 -80.4000 239° Southwest 81 93 2,700 240 Climbing Miami Center
10:02PM 27.4614 -80.4258 330° Northwest 99 114 3,000 60 Climbing Miami Center
10:03PM 27.4886 -80.4297 353° North 100 115 3,000  Level Miami Center
10:04PM 27.4975 -80.3726 152° Southeast  Level Estimated
10:04PM 27.5183 -80.4381 346° North 103 119 3,000  Level Miami Center
10:05PM 27.5456 -80.4453 347° North 104 120 3,000  Level Miami Center
10:06PM 27.5717 -80.4578 337° Northwest 104 120 3,000 -60 Level Miami Center
10:07PM 27.5611 -80.4872 248° West 100 115 2,900  Descending Miami Center
10:08PM 27.5628 -80.5158 274° West 98 113 3,000  Climbing Miami Center
10:09PM 27.5736 -80.5450 293° West 98 113 3,000  Level Miami Center
10:10PM 27.5864 -80.5731 297° West 98 113 3,000  Level Miami Center
10:11PM 27.6039 -80.5950 312° West 98 113 3,000  Level Miami Center
10:12PM 27.6258 -80.6158 320° Northwest 99 114 3,000  Level Miami Center
10:13PM 27.6547 -80.6250 344° North 102 117 3,000 -60 Level Miami Center
10:14PM 27.6839 -80.6250 360° North 106 122 2,900  Descending Miami Center
10:15PM 27.7178 -80.6172 11° North 106 122 3,000 -240 Climbing Miami Center
10:16PM 27.7158 -80.5914 95° East 92 106 2,500 -720 Descending Miami Center
10:17PM 27.7047 -80.5656 116° Southeast 88 101 1,600 -660 Descending Miami Center
10:18PM 27.6967 -80.5425 112° Southeast 85 98 1,200 -240 Descending Miami Center
10:19PM 27.6889 -80.5172 109° East 85 98 1,200 -60 Level Miami Center
10:20PM 27.6794 -80.4914 112° Southeast 85 98 1,100 -180 Descending Miami Center
10:21PM 27.6756 -80.4703 102° East 76 87 900 -360 Descending Miami Center
10:22PM 27.6644 -80.4500 122° Southeast 75 86 400 -300 Descending Miami Center
10:23PM 27.6569 -80.4264 110° East 75 86 400 240 Level Miami Center
10:24PM 27.6603 -80.4033 81° East 95 109 900 540 Climbing Miami Center
10:25PM 27.6894 -80.4108 347° North 106 122 1,500 540 Climbing Miami Center
10:26PM 27.7156 -80.4197 343° North 105 121 2,000 240 Climbing Miami Center
10:27PM 27.7325 -80.4417 311° West 100 115 2,000  Level Miami Center
10:28PM 27.7144 -80.4625 226° Southwest 88 101 2,000  Level Miami Center
10:29PM 27.6953 -80.4858 227° Southwest 101 116 2,000  Level Miami Center
10:30PM 27.6772 -80.5086 228° Southwest 100 115 2,000  Level Miami Center
10:32PM 27.6578 -80.5325 227° Southwest 98 113 2,000  Level Miami Center
10:33PM 27.6394 -80.5539 226° Southwest 98 113 2,000  Level Miami Center
10:34PM 27.6200 -80.5772 227° Southwest 98 113 2,000 -60 Level Miami Center
10:35PM 27.6028 -80.5975 226° Southwest 97 112 1,900  Descending Miami Center
10:36PM 27.5822 -80.6189 223° Southwest 95 109 2,000  Climbing Miami Center
10:37PM 27.5739 -80.6456 251° West 105 121 2,000  Level Miami Center
10:38PM 27.5925 -80.6358 25° Northeast 100 115 2,000  Level Miami Center
10:39PM 27.5983 -80.6072 77° East 90 104 2,000  Level Miami Center
10:40PM 27.5869 -80.5897 126° Southeast 86 99 2,000  Level Miami Center
10:41PM 27.5817 -80.6189 258° West 108 124 2,000  Level Miami Center
10:42PM 27.5831 -80.6492 273° West 98 113 2,000  Level Miami Center
10:43PM 27.5964 -80.6369 39° Northeast 96 110 2,000 -60 Level Miami Center
10:44PM 27.5992 -80.6083 84° East 88 101 1,900  Descending Miami Center
10:45PM 27.5933 -80.5858 106° East 80 92 2,000  Climbing Miami Center
10:46PM 27.5847 -80.6100 248° West 96 110 2,000 -60 Level Miami Center
10:47PM 27.5933 -80.6367 290° West 111 128 1,900  Descending Miami Center
10:48PM 27.5981 -80.6131 77° East 86 99 2,000  Climbing Miami Center
10:49PM 27.5933 -80.5908 103° East 85 98 2,000 -60 Level Miami Center
10:50PM 27.5867 -80.6183 255° West 107 123 1,900  Descending Miami Center
10:51PM 27.5872 -80.6494 271° West 103 119 2,000  Climbing Miami Center
10:52PM 27.5986 -80.6333 51° Northeast 97 112 2,000  Level Miami Center
10:53PM 27.5819 -80.6217 148° Southeast 85 98 2,100  Climbing Miami Center
10:54PM 27.5586 -80.6147 165° South 83 96 2,000 -60 Descending Miami Center
10:55PM 27.5375 -80.6069 162° South 83 96 2,000  Level Miami Center
10:56PM 27.5147 -80.5969 159° South 83 96 2,000  Level Miami Center
10:57PM 27.4922 -80.5947 175° South 84 97 2,000 -60 Level Miami Center
10:58PM 27.5000 -80.6161 292° West 113 130 1,900  Descending Miami Center
10:59PM 27.5286 -80.6186 356° North 110 127 2,000  Climbing Miami Center
11:00PM 27.5378 -80.6019 58° Northeast 96 110 2,000  Level Miami Center
11:01PM 27.5139 -80.5972 170° South 87 100 2,000  Level Miami Center
11:02PM 27.4978 -80.5828 142° Southeast 93 107 2,100 -60 Climbing Miami Center
11:03PM 27.5014 -80.5542 82° East 88 101 1,900 -120 Descending Miami Center
11:04PM 27.5000 -80.5275 93° East 89 102 1,900  Level Miami Center
11:05PM 27.4992 -80.4981 92° East 89 102 2,000 -60 Climbing Miami Center
11:06PM 27.4981 -80.4708 93° East 89 102 1,800 -420 Descending Miami Center
11:07PM 27.4981 -80.4453 90° East 82 94 1,200 -540 Descending Miami Center
11:08PM 27.4975 -80.4208 91° East 82 94 800 -360 Descending Miami Center
11:09PM 27.4972 -80.3950 91° East 81 93 500 -120 Descending Miami Center
11:10PM 27.4981 -80.3689 88° East 81 93 600 300 Climbing Miami Center
11:11PM 27.4939 -80.3447 101° East 83 96 1,200 540 Climbing Miami Center
11:12PM 27.4900 -80.3200 100° East 82 94 1,700 480 Climbing Miami Center
11:13PM 27.4883 -80.2922 94° East 85 98 2,200 540 Climbing Miami Center
11:14PM 27.4736 -80.2811 146° Southeast 81 93 2,800 420 Climbing Miami Center
11:15PM 27.4647 -80.3050 247° West 85 98 3,100 120 Climbing Miami Center
11:16PM 27.4533 -80.3339 246° West 93 107 3,100  Level Miami Center
11:17PM 27.4444 -80.3592 248° West 92 106 3,100  Level Miami Center
11:18PM 27.4333 -80.3858 245° Southwest 92 106 3,100  Level Miami Center
11:19PM 27.4244 -80.4111 248° West 92 106 3,100  Level Miami Center
11:20PM 27.4139 -80.4358 244° Southwest 91 105 3,100  Level Miami Center
11:21PM 27.4142 -80.4686 271° West 91 105 3,100  Level Miami Center
11:22PM 27.4164 -80.4964 275° West 92 106 3,100 -60 Level Miami Center
11:23PM 27.4225 -80.5256 283° West 94 108 3,000 -360 Descending Miami Center
11:24PM 27.4478 -80.5392 334° Northwest 102 117 2,400 -480 Descending Miami Center
11:25PM 27.4761 -80.5547 334° Northwest 107 123 2,100 -180 Descending Miami Center
11:26PM 27.4967 -80.5383 35° Northeast 101 116 2,100 -120 Level Miami Center
11:27PM 27.4986 -80.5122 85° East 85 98 1,900 -240 Descending Miami Center